CheckWX is a tool to help pilots better visualize weather data.  It is not intended as a substitute for an official pre-flight weather briefing.

12:28:59 UTC

KHPN TAF
Westchester County Airport
White Plains, New York, USA
KHPN 261123Z 2612/2712 35005KT P6SM FEW080 SCT250 FM261500 31005KT P6SM FEW060 FM261900 24006KT P6SM SCT060 FM262200 21006KT P6SM SCT060 FM270000 VRB03KT P6SM FEW250 AMD NOT SKED

Jun-26@
12:00 UTC

Jun-26 @ 12:00 UTC

Jun-26@
15:00 UTC

Jun-26 @ 15:00 UTC

KHPN 261123Z 2612/2712 35005KT P6SM FEW080 SCT250
Wind
  • 350° at 5 KTS
Cloud Levels
  • Few at 8,000' AGL
  • Scattered at 25,000' AGL

Jun-26@
15:00 UTC

Jun-26 @ 15:00 UTC

Jun-26@
19:00 UTC

Jun-26 @ 19:00 UTC

FM261500 31005KT P6SM FEW060

From

From Standard forecast or significant change

Wind
  • 310° at 5 KTS
Cloud Levels
  • Few at 6,000' AGL

Jun-26@
19:00 UTC

Jun-26 @ 19:00 UTC

Jun-26@
22:00 UTC

Jun-26 @ 22:00 UTC

FM261900 24006KT P6SM SCT060

From

From Standard forecast or significant change

Wind
  • 240° at 6 KTS
Cloud Levels
  • Scattered at 6,000' AGL

Jun-26@
22:00 UTC

Jun-26 @ 22:00 UTC

Jun-27@
00:00 UTC

Jun-27 @ 00:00 UTC

FM262200 21006KT P6SM SCT060

From

From Standard forecast or significant change

Wind
  • 210° at 6 KTS
Cloud Levels
  • Scattered at 6,000' AGL

Jun-27@
00:00 UTC

Jun-27 @ 00:00 UTC

Jun-27@
12:00 UTC

Jun-27 @ 12:00 UTC

FM270000 VRB03KT P6SM FEW250 AMD NOT SKED

From

From Standard forecast or significant change

Wind
  • Variable at 3 KTS
Cloud Levels
  • Few at 25,000' AGL